sensor_id;sensor_type;location;lat;lon;timestamp;P1;durP1;ratioP1;P2;durP2;ratioP2
38615;SDS011;24370;51.986;4.666;2023-08-01T00:01:53;1999.90;;;999.90;;
38615;SDS011;24370;51.986;4.666;2023-08-01T00:04:18;1999.90;;;999.90;;
38615;SDS011;24370;51.986;4.666;2023-08-01T00:06:43;1999.90;;;999.90;;
38615;SDS011;24370;51.986;4.666;2023-08-01T00:09:09;1999.90;;;999.90;;
38615;SDS011;24370;51.986;4.666;2023-08-01T00:11:36;1999.90;;;999.90;;
38615;SDS011;24370;51.986;4.666;2023-08-01T00:14:02;1999.90;;;999.90;;
38615;SDS011;24370;51.986;4.666;2023-08-01T00:16:27;1999.90;;;999.90;;
38615;SDS011;24370;51.986;4.666;2023-08-01T00:18:53;1999.90;;;999.90;;
38615;SDS011;24370;51.986;4.666;2023-08-01T00:21:18;1999.90;;;999.90;;
38615;SDS011;24370;51.986;4.666;2023-08-01T00:23:44;1999.90;;;999.90;;
38615;SDS011;24370;51.986;4.666;2023-08-01T00:26:09;1999.90;;;999.90;;
38615;SDS011;24370;51.986;4.666;2023-08-01T00:28:34;1999.90;;;999.90;;
38615;SDS011;24370;51.986;4.666;2023-08-01T00:31:05;1999.90;;;999.90;;
38615;SDS011;24370;51.986;4.666;2023-08-01T00:33:31;1999.90;;;999.90;;
38615;SDS011;24370;51.986;4.666;2023-08-01T00:35:57;1999.90;;;999.90;;
38615;SDS011;24370;51.986;4.666;2023-08-01T00:38:22;1999.90;;;999.90;;
38615;SDS011;24370;51.986;4.666;2023-08-01T00:40:48;1999.90;;;999.90;;
38615;SDS011;24370;51.986;4.666;2023-08-01T00:43:13;1999.90;;;999.90;;
38615;SDS011;24370;51.986;4.666;2023-08-01T00:45:38;1999.90;;;999.90;;
38615;SDS011;24370;51.986;4.666;2023-08-01T00:48:04;1999.90;;;999.90;;
38615;SDS011;24370;51.986;4.666;2023-08-01T00:50:30;1999.90;;;999.90;;
38615;SDS011;24370;51.986;4.666;2023-08-01T00:52:55;1999.90;;;999.90;;
38615;SDS011;24370;51.986;4.666;2023-08-01T00:55:22;1999.90;;;999.90;;
38615;SDS011;24370;51.986;4.666;2023-08-01T00:57:48;1999.90;;;999.90;;
38615;SDS011;24370;51.986;4.666;2023-08-01T01:00:13;1999.90;;;999.90;;
38615;SDS011;24370;51.986;4.666;2023-08-01T01:02:39;1999.90;;;999.90;;
38615;SDS011;24370;51.986;4.666;2023-08-01T01:05:05;1999.90;;;999.90;;
38615;SDS011;24370;51.986;4.666;2023-08-01T01:07:31;1999.90;;;999.90;;
38615;SDS011;24370;51.986;4.666;2023-08-01T01:09:58;1999.90;;;999.90;;
38615;SDS011;24370;51.986;4.666;2023-08-01T01:12:24;1999.90;;;999.90;;
38615;SDS011;24370;51.986;4.666;2023-08-01T01:14:49;1999.90;;;999.90;;
38615;SDS011;24370;51.986;4.666;2023-08-01T01:17:14;1999.90;;;999.90;;
38615;SDS011;24370;51.986;4.666;2023-08-01T01:19:40;1999.90;;;999.90;;
38615;SDS011;24370;51.986;4.666;2023-08-01T01:22:06;1999.90;;;999.90;;
38615;SDS011;24370;51.986;4.666;2023-08-01T01:24:34;1999.90;;;999.90;;
38615;SDS011;24370;51.986;4.666;2023-08-01T01:27:02;1999.90;;;999.90;;
38615;SDS011;24370;51.986;4.666;2023-08-01T01:29:29;1999.90;;;999.90;;
38615;SDS011;24370;51.986;4.666;2023-08-01T01:31:55;1999.90;;;999.90;;
38615;SDS011;24370;51.986;4.666;2023-08-01T01:34:23;1999.90;;;999.90;;
38615;SDS011;24370;51.986;4.666;2023-08-01T01:36:49;1999.90;;;999.90;;
38615;SDS011;24370;51.986;4.666;2023-08-01T01:39:14;1999.90;;;999.90;;
38615;SDS011;24370;51.986;4.666;2023-08-01T01:41:39;1999.90;;;999.90;;
38615;SDS011;24370;51.986;4.666;2023-08-01T01:44:05;1999.90;;;999.90;;
38615;SDS011;24370;51.986;4.666;2023-08-01T01:46:30;1999.90;;;999.90;;
38615;SDS011;24370;51.986;4.666;2023-08-01T01:48:56;1999.90;;;999.90;;
38615;SDS011;24370;51.986;4.666;2023-08-01T01:51:22;1999.90;;;999.90;;
38615;SDS011;24370;51.986;4.666;2023-08-01T01:53:49;1999.90;;;999.90;;
38615;SDS011;24370;51.986;4.666;2023-08-01T01:56:15;1999.90;;;999.90;;
38615;SDS011;24370;51.986;4.666;2023-08-01T01:58:40;1999.90;;;999.90;;
38615;SDS011;24370;51.986;4.666;2023-08-01T02:01:05;1999.90;;;999.90;;
38615;SDS011;24370;51.986;4.666;2023-08-01T02:03:31;1999.90;;;999.90;;
38615;SDS011;24370;51.986;4.666;2023-08-01T02:05:56;1999.90;;;999.90;;
38615;SDS011;24370;51.986;4.666;2023-08-01T02:08:21;1999.90;;;999.90;;
38615;SDS011;24370;51.986;4.666;2023-08-01T02:10:47;1999.90;;;999.90;;
38615;SDS011;24370;51.986;4.666;2023-08-01T02:13:13;1999.90;;;999.90;;
38615;SDS011;24370;51.986;4.666;2023-08-01T02:15:38;1999.90;;;999.90;;
38615;SDS011;24370;51.986;4.666;2023-08-01T02:18:04;1999.90;;;999.90;;
38615;SDS011;24370;51.986;4.666;2023-08-01T02:20:29;1999.90;;;999.90;;
38615;SDS011;24370;51.986;4.666;2023-08-01T02:22:55;1999.90;;;999.90;;
38615;SDS011;24370;51.986;4.666;2023-08-01T02:25:20;1999.90;;;999.90;;
38615;SDS011;24370;51.986;4.666;2023-08-01T02:27:45;1999.90;;;999.90;;
38615;SDS011;24370;51.986;4.666;2023-08-01T02:30:11;1999.90;;;999.90;;
38615;SDS011;24370;51.986;4.666;2023-08-01T02:32:36;1999.90;;;999.90;;
38615;SDS011;24370;51.986;4.666;2023-08-01T02:35:02;1999.90;;;999.90;;
38615;SDS011;24370;51.986;4.666;2023-08-01T02:37:27;1999.90;;;999.90;;
38615;SDS011;24370;51.986;4.666;2023-08-01T02:39:53;1999.90;;;999.90;;
38615;SDS011;24370;51.986;4.666;2023-08-01T02:42:18;1999.90;;;999.90;;
38615;SDS011;24370;51.986;4.666;2023-08-01T02:44:43;1999.90;;;999.90;;
38615;SDS011;24370;51.986;4.666;2023-08-01T02:47:09;1999.90;;;999.90;;
38615;SDS011;24370;51.986;4.666;2023-08-01T02:49:34;1999.90;;;999.90;;
38615;SDS011;24370;51.986;4.666;2023-08-01T02:52:03;1999.90;;;999.90;;
38615;SDS011;24370;51.986;4.666;2023-08-01T02:54:28;1999.90;;;999.90;;
38615;SDS011;24370;51.986;4.666;2023-08-01T02:56:54;1999.90;;;999.90;;
38615;SDS011;24370;51.986;4.666;2023-08-01T02:59:19;1999.90;;;999.90;;
38615;SDS011;24370;51.986;4.666;2023-08-01T03:01:44;1999.90;;;999.90;;
38615;SDS011;24370;51.986;4.666;2023-08-01T03:04:10;1999.90;;;999.90;;
38615;SDS011;24370;51.986;4.666;2023-08-01T03:06:39;1999.90;;;999.90;;
38615;SDS011;24370;51.986;4.666;2023-08-01T03:09:05;1999.90;;;999.90;;
38615;SDS011;24370;51.986;4.666;2023-08-01T03:11:35;1999.90;;;999.90;;
38615;SDS011;24370;51.986;4.666;2023-08-01T03:14:02;1999.90;;;999.90;;
38615;SDS011;24370;51.986;4.666;2023-08-01T03:16:29;1999.90;;;999.90;;
38615;SDS011;24370;51.986;4.666;2023-08-01T03:18:55;1999.90;;;999.90;;
38615;SDS011;24370;51.986;4.666;2023-08-01T03:21:21;1999.90;;;999.90;;
38615;SDS011;24370;51.986;4.666;2023-08-01T03:23:46;1999.90;;;999.90;;
38615;SDS011;24370;51.986;4.666;2023-08-01T03:26:11;1999.90;;;999.90;;
38615;SDS011;24370;51.986;4.666;2023-08-01T03:28:37;1999.90;;;999.90;;
38615;SDS011;24370;51.986;4.666;2023-08-01T03:31:03;1999.90;;;999.90;;
38615;SDS011;24370;51.986;4.666;2023-08-01T03:33:28;1999.90;;;999.90;;
38615;SDS011;24370;51.986;4.666;2023-08-01T03:35:54;1999.90;;;999.90;;
38615;SDS011;24370;51.986;4.666;2023-08-01T03:38:19;1999.90;;;999.90;;
38615;SDS011;24370;51.986;4.666;2023-08-01T03:40:45;1999.90;;;999.90;;
38615;SDS011;24370;51.986;4.666;2023-08-01T03:43:10;1999.90;;;999.90;;
38615;SDS011;24370;51.986;4.666;2023-08-01T03:45:36;1999.90;;;999.90;;
38615;SDS011;24370;51.986;4.666;2023-08-01T03:48:01;1999.90;;;999.90;;
38615;SDS011;24370;51.986;4.666;2023-08-01T03:50:26;1999.90;;;999.90;;
38615;SDS011;24370;51.986;4.666;2023-08-01T03:52:52;1999.90;;;999.90;;
38615;SDS011;24370;51.986;4.666;2023-08-01T03:55:17;1999.90;;;999.90;;
38615;SDS011;24370;51.986;4.666;2023-08-01T03:57:43;1999.90;;;999.90;;
38615;SDS011;24370;51.986;4.666;2023-08-01T04:00:09;1999.90;;;999.90;;
38615;SDS011;24370;51.986;4.666;2023-08-01T04:02:43;1999.90;;;999.90;;
38615;SDS011;24370;51.986;4.666;2023-08-01T04:05:09;1999.90;;;999.90;;
38615;SDS011;24370;51.986;4.666;2023-08-01T04:07:38;1999.90;;;999.90;;
38615;SDS011;24370;51.986;4.666;2023-08-01T04:10:03;1999.90;;;999.90;;
38615;SDS011;24370;51.986;4.666;2023-08-01T04:12:31;1999.90;;;999.90;;
38615;SDS011;24370;51.986;4.666;2023-08-01T04:14:58;1999.90;;;999.90;;
38615;SDS011;24370;51.986;4.666;2023-08-01T04:17:23;1999.90;;;999.90;;
38615;SDS011;24370;51.986;4.666;2023-08-01T04:19:49;1999.90;;;999.90;;
38615;SDS011;24370;51.986;4.666;2023-08-01T04:22:14;1999.90;;;999.90;;
38615;SDS011;24370;51.986;4.666;2023-08-01T04:24:40;1999.90;;;999.90;;
38615;SDS011;24370;51.986;4.666;2023-08-01T04:27:05;1999.90;;;999.90;;
38615;SDS011;24370;51.986;4.666;2023-08-01T04:29:31;1999.90;;;999.90;;
38615;SDS011;24370;51.986;4.666;2023-08-01T04:31:56;1999.90;;;999.90;;
38615;SDS011;24370;51.986;4.666;2023-08-01T04:34:22;1999.90;;;999.90;;
38615;SDS011;24370;51.986;4.666;2023-08-01T04:36:47;1999.90;;;999.90;;
38615;SDS011;24370;51.986;4.666;2023-08-01T04:39:13;1999.90;;;999.90;;
38615;SDS011;24370;51.986;4.666;2023-08-01T04:41:38;1999.90;;;999.90;;
38615;SDS011;24370;51.986;4.666;2023-08-01T04:44:04;1999.90;;;999.90;;
38615;SDS011;24370;51.986;4.666;2023-08-01T04:46:29;1999.90;;;999.90;;
38615;SDS011;24370;51.986;4.666;2023-08-01T04:48:55;1999.90;;;999.90;;
38615;SDS011;24370;51.986;4.666;2023-08-01T04:51:20;1999.90;;;999.90;;
38615;SDS011;24370;51.986;4.666;2023-08-01T04:53:45;1999.90;;;999.90;;
38615;SDS011;24370;51.986;4.666;2023-08-01T04:56:11;1999.90;;;999.90;;
38615;SDS011;24370;51.986;4.666;2023-08-01T04:58:36;1999.90;;;999.90;;
38615;SDS011;24370;51.986;4.666;2023-08-01T05:01:02;1999.90;;;999.90;;
38615;SDS011;24370;51.986;4.666;2023-08-01T05:03:27;1999.90;;;999.90;;
38615;SDS011;24370;51.986;4.666;2023-08-01T05:05:52;1999.90;;;999.90;;
38615;SDS011;24370;51.986;4.666;2023-08-01T05:08:18;1999.90;;;999.90;;
38615;SDS011;24370;51.986;4.666;2023-08-01T05:10:43;1999.90;;;999.90;;
38615;SDS011;24370;51.986;4.666;2023-08-01T05:13:09;1999.90;;;999.90;;
38615;SDS011;24370;51.986;4.666;2023-08-01T05:15:37;1999.90;;;999.90;;
38615;SDS011;24370;51.986;4.666;2023-08-01T05:18:02;1999.90;;;999.90;;
38615;SDS011;24370;51.986;4.666;2023-08-01T05:20:28;1999.90;;;999.90;;
38615;SDS011;24370;51.986;4.666;2023-08-01T05:22:57;1999.90;;;999.90;;
38615;SDS011;24370;51.986;4.666;2023-08-01T05:25:22;1999.90;;;999.90;;
38615;SDS011;24370;51.986;4.666;2023-08-01T05:27:48;1999.90;;;999.90;;
38615;SDS011;24370;51.986;4.666;2023-08-01T05:30:13;1999.90;;;999.90;;
38615;SDS011;24370;51.986;4.666;2023-08-01T05:32:39;1999.90;;;999.90;;
38615;SDS011;24370;51.986;4.666;2023-08-01T05:35:05;1999.90;;;999.90;;
38615;SDS011;24370;51.986;4.666;2023-08-01T05:37:31;1999.90;;;999.90;;
38615;SDS011;24370;51.986;4.666;2023-08-01T05:39:57;1999.90;;;999.90;;
38615;SDS011;24370;51.986;4.666;2023-08-01T05:42:22;1999.90;;;999.90;;
38615;SDS011;24370;51.986;4.666;2023-08-01T05:44:48;1999.90;;;999.90;;
38615;SDS011;24370;51.986;4.666;2023-08-01T05:47:13;1999.90;;;999.90;;
38615;SDS011;24370;51.986;4.666;2023-08-01T05:49:39;1999.90;;;999.90;;
38615;SDS011;24370;51.986;4.666;2023-08-01T05:52:06;1999.90;;;999.90;;
38615;SDS011;24370;51.986;4.666;2023-08-01T05:54:32;1999.90;;;999.90;;
38615;SDS011;24370;51.986;4.666;2023-08-01T05:56:57;1999.90;;;999.90;;
38615;SDS011;24370;51.986;4.666;2023-08-01T05:59:22;1999.90;;;999.90;;
38615;SDS011;24370;51.986;4.666;2023-08-01T06:01:48;1999.90;;;999.90;;
38615;SDS011;24370;51.986;4.666;2023-08-01T06:04:13;1999.90;;;999.90;;
38615;SDS011;24370;51.986;4.666;2023-08-01T06:06:39;1999.90;;;999.90;;
38615;SDS011;24370;51.986;4.666;2023-08-01T06:09:04;1999.90;;;999.90;;
38615;SDS011;24370;51.986;4.666;2023-08-01T06:11:30;1999.90;;;999.90;;
38615;SDS011;24370;51.986;4.666;2023-08-01T06:13:55;1999.90;;;999.90;;
38615;SDS011;24370;51.986;4.666;2023-08-01T06:16:21;1999.90;;;999.90;;
38615;SDS011;24370;51.986;4.666;2023-08-01T06:18:46;1999.90;;;999.90;;
38615;SDS011;24370;51.986;4.666;2023-08-01T06:21:12;1999.90;;;999.90;;
38615;SDS011;24370;51.986;4.666;2023-08-01T06:23:37;1999.90;;;999.90;;
38615;SDS011;24370;51.986;4.666;2023-08-01T06:26:03;1999.90;;;999.90;;
38615;SDS011;24370;51.986;4.666;2023-08-01T06:28:28;1999.90;;;999.90;;
38615;SDS011;24370;51.986;4.666;2023-08-01T06:30:54;1999.90;;;999.90;;
38615;SDS011;24370;51.986;4.666;2023-08-01T06:33:19;1999.90;;;999.90;;
38615;SDS011;24370;51.986;4.666;2023-08-01T06:35:44;1999.90;;;999.90;;
38615;SDS011;24370;51.986;4.666;2023-08-01T06:38:10;1999.90;;;999.90;;
38615;SDS011;24370;51.986;4.666;2023-08-01T06:40:35;1999.90;;;999.90;;
38615;SDS011;24370;51.986;4.666;2023-08-01T06:43:01;1999.90;;;999.90;;
38615;SDS011;24370;51.986;4.666;2023-08-01T06:45:26;1999.90;;;999.90;;
38615;SDS011;24370;51.986;4.666;2023-08-01T06:47:52;1999.90;;;999.90;;
38615;SDS011;24370;51.986;4.666;2023-08-01T06:50:18;1999.90;;;999.90;;
38615;SDS011;24370;51.986;4.666;2023-08-01T06:52:43;1999.90;;;999.90;;
38615;SDS011;24370;51.986;4.666;2023-08-01T06:55:08;1999.90;;;999.90;;
38615;SDS011;24370;51.986;4.666;2023-08-01T06:57:34;1999.90;;;999.90;;
38615;SDS011;24370;51.986;4.666;2023-08-01T07:00:03;1999.90;;;999.90;;
38615;SDS011;24370;51.986;4.666;2023-08-01T07:02:29;1999.90;;;999.90;;
38615;SDS011;24370;51.986;4.666;2023-08-01T07:04:55;1999.90;;;999.90;;
38615;SDS011;24370;51.986;4.666;2023-08-01T07:07:20;1999.90;;;999.90;;
38615;SDS011;24370;51.986;4.666;2023-08-01T07:09:46;1999.90;;;999.90;;
38615;SDS011;24370;51.986;4.666;2023-08-01T07:12:11;1999.90;;;999.90;;
38615;SDS011;24370;51.986;4.666;2023-08-01T07:14:37;1999.90;;;999.90;;
38615;SDS011;24370;51.986;4.666;2023-08-01T07:17:02;2.78;;;0.82;;
38615;SDS011;24370;51.986;4.666;2023-08-01T07:19:27;3.97;;;1.98;;
38615;SDS011;24370;51.986;4.666;2023-08-01T07:21:53;4.13;;;0.88;;
38615;SDS011;24370;51.986;4.666;2023-08-01T07:24:18;4.43;;;1.45;;
38615;SDS011;24370;51.986;4.666;2023-08-01T07:26:44;5.57;;;1.65;;
38615;SDS011;24370;51.986;4.666;2023-08-01T07:29:09;2.42;;;0.85;;
38615;SDS011;24370;51.986;4.666;2023-08-01T07:31:36;3.92;;;1.00;;
38615;SDS011;24370;51.986;4.666;2023-08-01T07:34:02;1999.90;;;999.90;;
38615;SDS011;24370;51.986;4.666;2023-08-01T07:36:27;1999.90;;;999.90;;
38615;SDS011;24370;51.986;4.666;2023-08-01T07:38:53;1999.90;;;999.90;;
38615;SDS011;24370;51.986;4.666;2023-08-01T07:41:19;1999.90;;;999.90;;
38615;SDS011;24370;51.986;4.666;2023-08-01T07:43:44;1999.90;;;999.90;;
38615;SDS011;24370;51.986;4.666;2023-08-01T07:46:10;1999.90;;;999.90;;
38615;SDS011;24370;51.986;4.666;2023-08-01T07:48:36;1999.90;;;999.90;;
38615;SDS011;24370;51.986;4.666;2023-08-01T07:51:02;1999.90;;;999.90;;
38615;SDS011;24370;51.986;4.666;2023-08-01T07:53:30;1999.90;;;999.90;;
38615;SDS011;24370;51.986;4.666;2023-08-01T07:55:55;1999.90;;;999.90;;
38615;SDS011;24370;51.986;4.666;2023-08-01T07:58:21;1999.90;;;999.90;;
38615;SDS011;24370;51.986;4.666;2023-08-01T08:00:46;1999.90;;;999.90;;
38615;SDS011;24370;51.986;4.666;2023-08-01T08:03:12;1999.90;;;999.90;;
38615;SDS011;24370;51.986;4.666;2023-08-01T08:05:37;1999.90;;;999.90;;
38615;SDS011;24370;51.986;4.666;2023-08-01T08:08:03;1999.90;;;999.90;;
38615;SDS011;24370;51.986;4.666;2023-08-01T08:10:30;1999.90;;;999.90;;
38615;SDS011;24370;51.986;4.666;2023-08-01T08:12:58;1999.90;;;999.90;;
38615;SDS011;24370;51.986;4.666;2023-08-01T08:15:24;1999.90;;;999.90;;
38615;SDS011;24370;51.986;4.666;2023-08-01T08:17:51;1999.90;;;999.90;;
38615;SDS011;24370;51.986;4.666;2023-08-01T08:20:16;1999.90;;;999.90;;
38615;SDS011;24370;51.986;4.666;2023-08-01T08:22:41;1999.90;;;999.90;;
38615;SDS011;24370;51.986;4.666;2023-08-01T08:25:07;1999.90;;;999.90;;
38615;SDS011;24370;51.986;4.666;2023-08-01T08:27:32;1999.90;;;999.90;;
38615;SDS011;24370;51.986;4.666;2023-08-01T08:29:59;1999.90;;;999.90;;
38615;SDS011;24370;51.986;4.666;2023-08-01T08:32:24;1999.90;;;999.90;;
38615;SDS011;24370;51.986;4.666;2023-08-01T08:34:52;1999.90;;;999.90;;
38615;SDS011;24370;51.986;4.666;2023-08-01T08:37:18;1999.90;;;999.90;;
38615;SDS011;24370;51.986;4.666;2023-08-01T08:39:43;1999.90;;;999.90;;
38615;SDS011;24370;51.986;4.666;2023-08-01T08:42:09;1999.90;;;999.90;;
38615;SDS011;24370;51.986;4.666;2023-08-01T08:44:40;1999.90;;;999.90;;
38615;SDS011;24370;51.986;4.666;2023-08-01T08:47:08;1999.90;;;999.90;;
38615;SDS011;24370;51.986;4.666;2023-08-01T08:49:36;1999.90;;;999.90;;
38615;SDS011;24370;51.986;4.666;2023-08-01T08:52:02;1999.90;;;999.90;;
38615;SDS011;24370;51.986;4.666;2023-08-01T08:54:28;1999.90;;;999.90;;
38615;SDS011;24370;51.986;4.666;2023-08-01T08:56:56;1999.90;;;999.90;;
38615;SDS011;24370;51.986;4.666;2023-08-01T08:59:23;1999.90;;;999.90;;
38615;SDS011;24370;51.986;4.666;2023-08-01T09:01:50;1999.90;;;999.90;;
38615;SDS011;24370;51.986;4.666;2023-08-01T09:04:16;1999.90;;;999.90;;
38615;SDS011;24370;51.986;4.666;2023-08-01T09:06:45;1999.90;;;999.90;;
38615;SDS011;24370;51.986;4.666;2023-08-01T09:09:13;1999.90;;;999.90;;
38615;SDS011;24370;51.986;4.666;2023-08-01T09:11:47;1999.90;;;999.90;;
38615;SDS011;24370;51.986;4.666;2023-08-01T09:14:14;1999.90;;;999.90;;
38615;SDS011;24370;51.986;4.666;2023-08-01T09:16:41;1999.90;;;999.90;;
38615;SDS011;24370;51.986;4.666;2023-08-01T09:19:07;1999.90;;;999.90;;
38615;SDS011;24370;51.986;4.666;2023-08-01T09:21:34;1999.90;;;999.90;;
38615;SDS011;24370;51.986;4.666;2023-08-01T09:24:16;1999.90;;;999.90;;
38615;SDS011;24370;51.986;4.666;2023-08-01T09:26:44;1999.90;;;999.90;;
38615;SDS011;24370;51.986;4.666;2023-08-01T09:29:10;1999.90;;;999.90;;
38615;SDS011;24370;51.986;4.666;2023-08-01T09:31:37;1999.90;;;999.90;;
38615;SDS011;24370;51.986;4.666;2023-08-01T09:34:06;1999.90;;;999.90;;
38615;SDS011;24370;51.986;4.666;2023-08-01T09:36:43;1999.90;;;999.90;;
38615;SDS011;24370;51.986;4.666;2023-08-01T09:39:09;1999.90;;;999.90;;
38615;SDS011;24370;51.986;4.666;2023-08-01T09:41:44;1999.90;;;999.90;;
38615;SDS011;24370;51.986;4.666;2023-08-01T09:44:11;1999.90;;;999.90;;
38615;SDS011;24370;51.986;4.666;2023-08-01T09:46:37;1999.90;;;999.90;;
38615;SDS011;24370;51.986;4.666;2023-08-01T09:49:06;1999.90;;;999.90;;
38615;SDS011;24370;51.986;4.666;2023-08-01T09:54:11;1999.90;;;999.90;;
38615;SDS011;24370;51.986;4.666;2023-08-01T09:56:36;1999.90;;;999.90;;
38615;SDS011;24370;51.986;4.666;2023-08-01T09:59:03;1999.90;;;999.90;;
38615;SDS011;24370;51.986;4.666;2023-08-01T10:01:29;1999.90;;;999.90;;
38615;SDS011;24370;51.986;4.666;2023-08-01T10:03:57;1999.90;;;999.90;;
38615;SDS011;24370;51.986;4.666;2023-08-01T10:06:24;1999.90;;;999.90;;
38615;SDS011;24370;51.986;4.666;2023-08-01T10:08:54;1999.90;;;999.90;;
38615;SDS011;24370;51.986;4.666;2023-08-01T10:11:20;1999.90;;;999.90;;
38615;SDS011;24370;51.986;4.666;2023-08-01T10:13:47;1999.90;;;999.90;;
38615;SDS011;24370;51.986;4.666;2023-08-01T10:16:13;1999.90;;;999.90;;
38615;SDS011;24370;51.986;4.666;2023-08-01T10:18:40;1999.90;;;999.90;;
38615;SDS011;24370;51.986;4.666;2023-08-01T10:21:06;1999.90;;;999.90;;
38615;SDS011;24370;51.986;4.666;2023-08-01T10:23:33;1999.90;;;999.90;;
38615;SDS011;24370;51.986;4.666;2023-08-01T10:26:05;1999.90;;;999.90;;
38615;SDS011;24370;51.986;4.666;2023-08-01T10:28:39;1999.90;;;999.90;;
38615;SDS011;24370;51.986;4.666;2023-08-01T10:36:13;1999.90;;;999.90;;
38615;SDS011;24370;51.986;4.666;2023-08-01T10:38:48;1999.90;;;999.90;;
38615;SDS011;24370;51.986;4.666;2023-08-01T10:41:31;1999.90;;;999.90;;
38615;SDS011;24370;51.986;4.666;2023-08-01T10:44:14;1999.90;;;999.90;;
38615;SDS011;24370;51.986;4.666;2023-08-01T10:46:58;1999.90;;;999.90;;
38615;SDS011;24370;51.986;4.666;2023-08-01T10:49:37;1999.90;;;999.90;;
38615;SDS011;24370;51.986;4.666;2023-08-01T10:54:42;1999.90;;;999.90;;
38615;SDS011;24370;51.986;4.666;2023-08-01T10:57:08;1999.90;;;999.90;;
38615;SDS011;24370;51.986;4.666;2023-08-01T10:59:40;1999.90;;;999.90;;
38615;SDS011;24370;51.986;4.666;2023-08-01T11:02:07;1999.90;;;999.90;;
38615;SDS011;24370;51.986;4.666;2023-08-01T11:04:32;1999.90;;;999.90;;
38615;SDS011;24370;51.986;4.666;2023-08-01T11:06:58;1999.90;;;999.90;;
38615;SDS011;24370;51.986;4.666;2023-08-01T11:09:26;1999.90;;;999.90;;
38615;SDS011;24370;51.986;4.666;2023-08-01T11:11:54;1999.90;;;999.90;;
38615;SDS011;24370;51.986;4.666;2023-08-01T11:14:26;1999.90;;;999.90;;
38615;SDS011;24370;51.986;4.666;2023-08-01T11:16:53;1999.90;;;999.90;;
38615;SDS011;24370;51.986;4.666;2023-08-01T11:21:50;1999.90;;;999.90;;
38615;SDS011;24370;51.986;4.666;2023-08-01T11:24:17;1999.90;;;999.90;;
38615;SDS011;24370;51.986;4.666;2023-08-01T11:26:43;1999.90;;;999.90;;
38615;SDS011;24370;51.986;4.666;2023-08-01T11:29:11;1999.90;;;999.90;;
38615;SDS011;24370;51.986;4.666;2023-08-01T11:31:37;1999.90;;;999.90;;
38615;SDS011;24370;51.986;4.666;2023-08-01T11:34:03;1999.90;;;999.90;;
38615;SDS011;24370;51.986;4.666;2023-08-01T11:36:29;1999.90;;;999.90;;
38615;SDS011;24370;51.986;4.666;2023-08-01T11:38:58;1999.90;;;999.90;;
38615;SDS011;24370;51.986;4.666;2023-08-01T11:41:26;1999.90;;;999.90;;
38615;SDS011;24370;51.986;4.666;2023-08-01T11:43:52;1999.90;;;999.90;;
38615;SDS011;24370;51.986;4.666;2023-08-01T11:46:19;1999.90;;;999.90;;
38615;SDS011;24370;51.986;4.666;2023-08-01T11:48:46;1999.90;;;999.90;;
38615;SDS011;24370;51.986;4.666;2023-08-01T11:51:12;1999.90;;;999.90;;
38615;SDS011;24370;51.986;4.666;2023-08-01T11:53:38;1999.90;;;999.90;;
38615;SDS011;24370;51.986;4.666;2023-08-01T11:56:07;1999.90;;;999.90;;
38615;SDS011;24370;51.986;4.666;2023-08-01T11:58:34;1999.90;;;999.90;;
38615;SDS011;24370;51.986;4.666;2023-08-01T12:03:32;1999.90;;;999.90;;
38615;SDS011;24370;51.986;4.666;2023-08-01T12:06:06;1999.90;;;999.90;;
38615;SDS011;24370;51.986;4.666;2023-08-01T12:08:33;1999.90;;;999.90;;
38615;SDS011;24370;51.986;4.666;2023-08-01T12:10:59;1999.90;;;999.90;;
38615;SDS011;24370;51.986;4.666;2023-08-01T12:13:25;1999.90;;;999.90;;
38615;SDS011;24370;51.986;4.666;2023-08-01T12:15:52;1999.90;;;999.90;;
38615;SDS011;24370;51.986;4.666;2023-08-01T12:18:27;1999.90;;;999.90;;
38615;SDS011;24370;51.986;4.666;2023-08-01T12:20:54;1999.90;;;999.90;;
38615;SDS011;24370;51.986;4.666;2023-08-01T12:23:19;1999.90;;;999.90;;
38615;SDS011;24370;51.986;4.666;2023-08-01T12:25:48;1999.90;;;999.90;;
38615;SDS011;24370;51.986;4.666;2023-08-01T12:28:14;1999.90;;;999.90;;
38615;SDS011;24370;51.986;4.666;2023-08-01T12:30:40;1999.90;;;999.90;;
38615;SDS011;24370;51.986;4.666;2023-08-01T12:33:07;1999.90;;;999.90;;
38615;SDS011;24370;51.986;4.666;2023-08-01T12:35:32;1999.90;;;999.90;;
38615;SDS011;24370;51.986;4.666;2023-08-01T12:37:58;1999.90;;;999.90;;
38615;SDS011;24370;51.986;4.666;2023-08-01T12:40:23;1999.90;;;999.90;;
38615;SDS011;24370;51.986;4.666;2023-08-01T12:42:49;1999.90;;;999.90;;
38615;SDS011;24370;51.986;4.666;2023-08-01T12:45:14;1999.90;;;999.90;;
38615;SDS011;24370;51.986;4.666;2023-08-01T12:47:40;1999.90;;;999.90;;
38615;SDS011;24370;51.986;4.666;2023-08-01T12:50:05;1999.90;;;999.90;;
38615;SDS011;24370;51.986;4.666;2023-08-01T12:52:31;1999.90;;;999.90;;
38615;SDS011;24370;51.986;4.666;2023-08-01T12:54:57;1999.90;;;999.90;;
38615;SDS011;24370;51.986;4.666;2023-08-01T12:57:22;1999.90;;;999.90;;
38615;SDS011;24370;51.986;4.666;2023-08-01T12:59:48;1999.90;;;999.90;;
38615;SDS011;24370;51.986;4.666;2023-08-01T13:02:14;1999.90;;;999.90;;
38615;SDS011;24370;51.986;4.666;2023-08-01T13:04:39;1999.90;;;999.90;;
38615;SDS011;24370;51.986;4.666;2023-08-01T13:07:05;1999.90;;;999.90;;
38615;SDS011;24370;51.986;4.666;2023-08-01T13:09:30;1999.90;;;999.90;;
38615;SDS011;24370;51.986;4.666;2023-08-01T13:11:56;1999.90;;;999.90;;
38615;SDS011;24370;51.986;4.666;2023-08-01T13:14:21;1999.90;;;999.90;;
38615;SDS011;24370;51.986;4.666;2023-08-01T13:16:49;1999.90;;;999.90;;
38615;SDS011;24370;51.986;4.666;2023-08-01T13:19:15;1999.90;;;999.90;;
38615;SDS011;24370;51.986;4.666;2023-08-01T13:21:40;1999.90;;;999.90;;
38615;SDS011;24370;51.986;4.666;2023-08-01T13:24:05;1999.90;;;999.90;;
38615;SDS011;24370;51.986;4.666;2023-08-01T13:26:31;1999.90;;;999.90;;
38615;SDS011;24370;51.986;4.666;2023-08-01T13:28:57;1999.90;;;999.90;;
38615;SDS011;24370;51.986;4.666;2023-08-01T13:31:23;1999.90;;;999.90;;
38615;SDS011;24370;51.986;4.666;2023-08-01T13:33:49;1999.90;;;999.90;;
38615;SDS011;24370;51.986;4.666;2023-08-01T13:36:14;1999.90;;;999.90;;
38615;SDS011;24370;51.986;4.666;2023-08-01T13:38:40;1999.90;;;999.90;;
38615;SDS011;24370;51.986;4.666;2023-08-01T13:41:05;1999.90;;;999.90;;
38615;SDS011;24370;51.986;4.666;2023-08-01T13:43:31;1999.90;;;999.90;;
38615;SDS011;24370;51.986;4.666;2023-08-01T13:45:56;1999.90;;;999.90;;
38615;SDS011;24370;51.986;4.666;2023-08-01T13:48:22;1999.90;;;999.90;;
38615;SDS011;24370;51.986;4.666;2023-08-01T13:50:47;1999.90;;;999.90;;
38615;SDS011;24370;51.986;4.666;2023-08-01T13:53:12;1999.90;;;999.90;;
38615;SDS011;24370;51.986;4.666;2023-08-01T13:55:39;1999.90;;;999.90;;
38615;SDS011;24370;51.986;4.666;2023-08-01T13:58:05;1999.90;;;999.90;;